Campanya meteocatpedra

Dades de l'estació automàtica Tornabous

?
?
Resum diari 20:30 TU
Dades diàries de l'estació meteorològica
Temperatura mitjana 23.7 °C
Temperatura màxima 31.2 °C 14:09 TU
Temperatura mínima 15.4 °C 4:39 TU
Humitat relativa mitjana 66%
Precipitació acumulada 0.0 mm
Ratxa màxima del vent (2 m) 24.1 km/h - 184º 16:57 TU

El tram horari està expressat en Temps Universal (TU). Cal sumar una hora en horari d'hivern i dues en horari d'estiu per passar a l'hora oficial.

Tornabous

Metadades estació meteorol´gica
Municipi Tornabous
Comarca Urgell
Altitud 291 m
Data alta 06.08.2013
Estat actual Operativa
Dades de període
Període
TU
TM
°C
TX
°C
TN
°C
HRM
%
PPT
mm
VVM (2 m)
km/h
DVM (2 m)
graus
VVX (2 m)
km/h
00:00 - 00:30 19.4 19.5 19.2 78 0.0 2.5 51 5.8
00:30 - 01:00 19.0 19.2 18.8 80 0.0 2.9 56 7.2
01:00 - 01:30 18.6 18.8 18.1 83 0.0 2.5 70 7.2
01:30 - 02:00 17.9 18.2 17.4 87 0.0 1.8 82 6.8
02:00 - 02:30 16.9 17.3 16.8 91 0.0 1.1 87 3.2
02:30 - 03:00 16.8 17.0 16.7 93 0.0 1.1 70 4.0
03:00 - 03:30 16.6 17.0 16.1 93 0.0 0.4 92 2.2
03:30 - 04:00 16.3 16.5 16.1 95 0.0 1.8 93 4.0
04:00 - 04:30 16.1 16.4 15.6 95 0.0 0.4 106 3.2
04:30 - 05:00 15.6 15.8 15.4 95 0.0 0.4 135 4.0
05:00 - 05:30 16.8 18.2 15.8 94 0.0 0.0 60 1.4
05:30 - 06:00 18.9 19.3 18.2 85 0.0 0.0 40 1.8
06:00 - 06:30 20.5 21.1 19.3 79 0.0 1.8 278 7.2
06:30 - 07:00 20.7 21.0 20.5 75 0.0 2.2 284 7.2
07:00 - 07:30 21.0 22.0 20.6 73 0.0 4.0 281 9.0
07:30 - 08:00 22.4 22.8 22.0 67 0.0 3.2 298 8.6
08:00 - 08:30 23.7 24.6 23.0 64 0.0 1.8 291 6.1
08:30 - 09:00 24.4 25.0 23.8 63 0.0 2.5 270 6.8
09:00 - 09:30 25.2 25.7 24.4 61 0.0 2.5 240 10.4
09:30 - 10:00 25.8 26.4 24.8 60 0.0 2.9 221 10.1
10:00 - 10:30 26.8 27.3 26.2 57 0.0 3.2 241 9.7
10:30 - 11:00 27.1 27.7 26.6 57 0.0 4.7 303 10.8
11:00 - 11:30 27.8 28.6 27.2 54 0.0 4.7 288 14.0
11:30 - 12:00 28.5 28.8 28.2 52 0.0 5.4 290 13.3
12:00 - 12:30 29.0 29.4 28.8 47 0.0 5.0 281 13.3
12:30 - 13:00 30.0 30.8 29.4 39 0.0 4.7 260 13.7
13:00 - 13:30 30.3 30.9 29.9 37 0.0 5.0 272 18.7
13:30 - 14:00 30.6 31.1 30.3 37 0.0 5.0 280 13.7
14:00 - 14:30 30.7 31.2 30.3 36 0.0 5.8 267 19.8
14:30 - 15:00 30.6 30.9 30.2 41 0.0 6.8 192 17.3
15:00 - 15:30 30.3 30.7 30.0 44 0.0 6.5 159 17.3
15:30 - 16:00 29.8 30.5 29.3 46 0.0 7.6 159 18.0
16:00 - 16:30 29.1 29.4 28.7 48 0.0 7.9 166 22.7
16:30 - 17:00 28.5 29.0 27.8 50 0.0 9.7 171 24.1
17:00 - 17:30 27.6 27.9 27.3 52 0.0 9.4 170 20.9
17:30 - 18:00 26.5 27.2 25.9 55 0.0 8.3 166 20.5
18:00 - 18:30 25.4 25.9 24.8 59 0.0 6.8 153 16.9
18:30 - 19:00 24.2 24.7 23.9 62 0.0 6.1 148 19.8
19:00 - 19:30 23.3 23.9 22.6 66 0.0 4.7 113 13.3
19:30 - 20:00 22.2 22.5 21.8 69 0.0 5.4 96 14.0
20:00 - 20:30 21.7 22.0 21.3 71 0.0 2.9 78 12.2
20:30 - 21:00 21.3 21.3 21.1 72 0.0 5.4 82 13.0

Les dades en taronja només han passat un control de qualitat automàtic. Resta pendent la seva validació definitiva.